Saint John, VI (00830)

1:20 PM AST on December 04, 2016 (GMT -0400)
ISTJOHNC2 | | Change Station

Elev 443 ft 18.33 °N, 64.78 °W | Updated 5 minutes ago

Scattered Clouds
Scattered Clouds
81.3 °F
Feels Like 87 °F
N
6.0
Wind Variable Wind from ESE
Gusts 14.0 mph

Today
High -- | Low -- °F
--% Chance of Precip.
Yesterday
High -- | Low -- °F
Precip. -- in
Pressure 29.96 in
Visibility 10.0 miles
Clouds Scattered Clouds 3300 ft
Heat Index 87 °F
Dew Point 74 °F
Humidity 79%
Rainfall 0.00 in
Snow Depth Not available.
6:36 AM 5:42 PM
Waxing Crescent, 24% visible
METAR TIST 041653Z 14009KT 10SM SCT033 29/24 A2995 RMK AO2 SLP143 T02940239 $
Pressure 29.96 in
Visibility 10.0 miles
Clouds Scattered Clouds 3300 ft
Heat Index 87 °F
Dew Point 74 °F
Humidity 79%
Rainfall 0.00 in
Snow Depth Not available.
6:36 AM 5:42 PM
Waxing Crescent, 24% visible
METAR TIST 041653Z 14009KT 10SM SCT033 29/24 A2995 RMK AO2 SLP143 T02940239 $

10-Day Weather Forecast

Almanac

Astronomy

Dec. 04, 2016 Rise Set
Actual Time
Civil Twilight
Nautical Twilight
Astronomical Twilight
Moon
Length of Visible Light
Length of Day
Tomorrow will be .
, % of the Moon is Illuminated

Today's Extremes

State Highs State Lows

Community

WunderPhotos

Upload Photos

1,955,609 photos uploaded!

WunderBlog® & News

Nearby

Air Quality

  Air Quality AQ Index Pollutant
Not available.

Snow Depth

Station Depth Elevation

Earthquake Activity

City Distance Mag. Time & Date
Minimum magnitude displayed is 2.5.

Coastal Water Temperatures

Place Temperature

Stations

Nearby Weather Stations

Station Location Temp. Windchill Dew Point Humidity Wind Precip. Elev Updated Type
                   

Watches & Warnings

There are currently no watches in effect.